sensor_id;sensor_type;location;lat;lon;timestamp;P1;durP1;ratioP1;P2;durP2;ratioP2
81273;SDS011;70753;47.908;11.274;2023-11-21T00:02:05;3.78;;;1.13;;
81273;SDS011;70753;47.908;11.274;2023-11-21T00:04:51;3.55;;;1.63;;
81273;SDS011;70753;47.908;11.274;2023-11-21T00:07:38;3.30;;;1.50;;
81273;SDS011;70753;47.908;11.274;2023-11-21T00:10:24;4.00;;;0.85;;
81273;SDS011;70753;47.908;11.274;2023-11-21T00:13:09;7.28;;;1.42;;
81273;SDS011;70753;47.908;11.274;2023-11-21T00:15:55;5.80;;;1.70;;
81273;SDS011;70753;47.908;11.274;2023-11-21T00:18:41;4.70;;;1.25;;
81273;SDS011;70753;47.908;11.274;2023-11-21T00:21:26;5.55;;;1.35;;
81273;SDS011;70753;47.908;11.274;2023-11-21T00:24:14;5.43;;;1.55;;
81273;SDS011;70753;47.908;11.274;2023-11-21T00:27:00;5.82;;;1.10;;
81273;SDS011;70753;47.908;11.274;2023-11-21T00:29:45;5.03;;;1.33;;
81273;SDS011;70753;47.908;11.274;2023-11-21T00:32:31;4.88;;;1.30;;
81273;SDS011;70753;47.908;11.274;2023-11-21T00:35:17;6.47;;;1.55;;
81273;SDS011;70753;47.908;11.274;2023-11-21T00:38:02;4.32;;;1.45;;
81273;SDS011;70753;47.908;11.274;2023-11-21T00:40:50;4.88;;;1.30;;
81273;SDS011;70753;47.908;11.274;2023-11-21T00:43:35;5.93;;;1.25;;
81273;SDS011;70753;47.908;11.274;2023-11-21T00:46:21;6.93;;;1.40;;
81273;SDS011;70753;47.908;11.274;2023-11-21T00:49:07;5.38;;;1.55;;
81273;SDS011;70753;47.908;11.274;2023-11-21T00:51:52;4.68;;;1.58;;
81273;SDS011;70753;47.908;11.274;2023-11-21T00:54:38;7.72;;;1.77;;
81273;SDS011;70753;47.908;11.274;2023-11-21T00:57:26;3.78;;;1.60;;
81273;SDS011;70753;47.908;11.274;2023-11-21T01:00:12;4.60;;;1.30;;
81273;SDS011;70753;47.908;11.274;2023-11-21T01:02:58;6.20;;;1.25;;
81273;SDS011;70753;47.908;11.274;2023-11-21T01:05:44;8.25;;;1.75;;
81273;SDS011;70753;47.908;11.274;2023-11-21T01:08:30;5.15;;;1.20;;
81273;SDS011;70753;47.908;11.274;2023-11-21T01:11:16;5.25;;;1.40;;
81273;SDS011;70753;47.908;11.274;2023-11-21T01:14:03;7.35;;;1.50;;
81273;SDS011;70753;47.908;11.274;2023-11-21T01:16:49;4.82;;;1.30;;
81273;SDS011;70753;47.908;11.274;2023-11-21T01:19:35;6.82;;;1.92;;
81273;SDS011;70753;47.908;11.274;2023-11-21T01:22:20;6.15;;;1.40;;
81273;SDS011;70753;47.908;11.274;2023-11-21T01:25:06;4.22;;;1.20;;
81273;SDS011;70753;47.908;11.274;2023-11-21T01:27:52;5.43;;;1.60;;
81273;SDS011;70753;47.908;11.274;2023-11-21T01:30:39;4.50;;;1.45;;
81273;SDS011;70753;47.908;11.274;2023-11-21T01:33:25;8.63;;;1.50;;
81273;SDS011;70753;47.908;11.274;2023-11-21T01:36:11;3.47;;;1.10;;
81273;SDS011;70753;47.908;11.274;2023-11-21T01:38:56;3.45;;;1.20;;
81273;SDS011;70753;47.908;11.274;2023-11-21T01:41:42;2.95;;;1.25;;
81273;SDS011;70753;47.908;11.274;2023-11-21T01:44:28;4.63;;;1.10;;
81273;SDS011;70753;47.908;11.274;2023-11-21T01:47:15;5.03;;;1.55;;
81273;SDS011;70753;47.908;11.274;2023-11-21T01:50:02;7.75;;;1.13;;
81273;SDS011;70753;47.908;11.274;2023-11-21T01:52:48;5.97;;;1.40;;
81273;SDS011;70753;47.908;11.274;2023-11-21T01:55:34;5.93;;;1.40;;
81273;SDS011;70753;47.908;11.274;2023-11-21T01:58:20;5.10;;;1.70;;
81273;SDS011;70753;47.908;11.274;2023-11-21T02:01:06;7.55;;;1.50;;
81273;SDS011;70753;47.908;11.274;2023-11-21T02:03:53;8.13;;;1.40;;
81273;SDS011;70753;47.908;11.274;2023-11-21T02:06:39;2.75;;;1.10;;
81273;SDS011;70753;47.908;11.274;2023-11-21T02:09:25;3.47;;;1.05;;
81273;SDS011;70753;47.908;11.274;2023-11-21T02:12:11;5.28;;;1.25;;
81273;SDS011;70753;47.908;11.274;2023-11-21T02:14:57;4.50;;;1.25;;
81273;SDS011;70753;47.908;11.274;2023-11-21T02:17:43;3.08;;;1.10;;
81273;SDS011;70753;47.908;11.274;2023-11-21T02:20:32;4.72;;;1.10;;
81273;SDS011;70753;47.908;11.274;2023-11-21T02:23:19;5.30;;;1.35;;
81273;SDS011;70753;47.908;11.274;2023-11-21T02:26:05;11.85;;;1.48;;
81273;SDS011;70753;47.908;11.274;2023-11-21T02:28:51;6.22;;;1.33;;
81273;SDS011;70753;47.908;11.274;2023-11-21T02:31:37;5.70;;;1.25;;
81273;SDS011;70753;47.908;11.274;2023-11-21T02:34:23;6.25;;;1.10;;
81273;SDS011;70753;47.908;11.274;2023-11-21T02:37:08;2.40;;;1.02;;
81273;SDS011;70753;47.908;11.274;2023-11-21T02:39:55;4.72;;;1.45;;
81273;SDS011;70753;47.908;11.274;2023-11-21T02:42:41;7.88;;;1.13;;
81273;SDS011;70753;47.908;11.274;2023-11-21T02:45:27;3.92;;;1.30;;
81273;SDS011;70753;47.908;11.274;2023-11-21T02:48:13;3.63;;;1.10;;
81273;SDS011;70753;47.908;11.274;2023-11-21T02:50:59;3.60;;;1.10;;
81273;SDS011;70753;47.908;11.274;2023-11-21T02:53:44;9.50;;;1.27;;
81273;SDS011;70753;47.908;11.274;2023-11-21T02:56:32;3.30;;;1.00;;
81273;SDS011;70753;47.908;11.274;2023-11-21T02:59:17;3.78;;;1.33;;
81273;SDS011;70753;47.908;11.274;2023-11-21T03:02:03;3.70;;;1.20;;
81273;SDS011;70753;47.908;11.274;2023-11-21T03:04:49;6.47;;;1.00;;
81273;SDS011;70753;47.908;11.274;2023-11-21T03:07:36;4.40;;;1.45;;
81273;SDS011;70753;47.908;11.274;2023-11-21T03:10:22;5.45;;;1.20;;
81273;SDS011;70753;47.908;11.274;2023-11-21T03:13:09;4.93;;;0.95;;
81273;SDS011;70753;47.908;11.274;2023-11-21T03:15:55;4.93;;;1.83;;
81273;SDS011;70753;47.908;11.274;2023-11-21T03:18:40;3.00;;;1.10;;
81273;SDS011;70753;47.908;11.274;2023-11-21T03:21:26;3.95;;;1.10;;
81273;SDS011;70753;47.908;11.274;2023-11-21T03:24:12;2.10;;;0.90;;
81273;SDS011;70753;47.908;11.274;2023-11-21T03:26:58;2.80;;;1.00;;
81273;SDS011;70753;47.908;11.274;2023-11-21T03:29:45;5.07;;;1.27;;
81273;SDS011;70753;47.908;11.274;2023-11-21T03:32:32;5.78;;;1.00;;
81273;SDS011;70753;47.908;11.274;2023-11-21T03:35:18;4.35;;;1.10;;
81273;SDS011;70753;47.908;11.274;2023-11-21T03:38:04;3.30;;;1.30;;
81273;SDS011;70753;47.908;11.274;2023-11-21T03:40:50;2.88;;;1.02;;
81273;SDS011;70753;47.908;11.274;2023-11-21T03:43:35;1.95;;;1.00;;
81273;SDS011;70753;47.908;11.274;2023-11-21T03:46:23;4.63;;;1.15;;
81273;SDS011;70753;47.908;11.274;2023-11-21T03:49:09;3.45;;;0.90;;
81273;SDS011;70753;47.908;11.274;2023-11-21T03:51:55;5.40;;;1.38;;
81273;SDS011;70753;47.908;11.274;2023-11-21T03:54:41;3.83;;;1.00;;
81273;SDS011;70753;47.908;11.274;2023-11-21T03:57:27;3.58;;;0.90;;
81273;SDS011;70753;47.908;11.274;2023-11-21T04:00:13;5.95;;;1.25;;
81273;SDS011;70753;47.908;11.274;2023-11-21T04:03:00;3.92;;;1.08;;
81273;SDS011;70753;47.908;11.274;2023-11-21T04:05:46;4.60;;;1.27;;
81273;SDS011;70753;47.908;11.274;2023-11-21T04:08:32;3.05;;;1.00;;
81273;SDS011;70753;47.908;11.274;2023-11-21T04:11:18;5.15;;;1.55;;
81273;SDS011;70753;47.908;11.274;2023-11-21T04:14:03;4.00;;;1.20;;
81273;SDS011;70753;47.908;11.274;2023-11-21T04:16:49;4.10;;;0.90;;
81273;SDS011;70753;47.908;11.274;2023-11-21T04:19:36;3.88;;;1.13;;
81273;SDS011;70753;47.908;11.274;2023-11-21T04:22:22;2.38;;;0.93;;
81273;SDS011;70753;47.908;11.274;2023-11-21T04:25:08;2.97;;;1.00;;
81273;SDS011;70753;47.908;11.274;2023-11-21T04:27:54;4.45;;;0.98;;
81273;SDS011;70753;47.908;11.274;2023-11-21T04:30:39;2.50;;;0.90;;
81273;SDS011;70753;47.908;11.274;2023-11-21T04:33:25;3.70;;;0.88;;
81273;SDS011;70753;47.908;11.274;2023-11-21T04:36:12;3.85;;;1.00;;
81273;SDS011;70753;47.908;11.274;2023-11-21T04:38:58;4.72;;;1.10;;
81273;SDS011;70753;47.908;11.274;2023-11-21T04:41:44;2.75;;;0.90;;
81273;SDS011;70753;47.908;11.274;2023-11-21T04:44:29;3.80;;;1.02;;
81273;SDS011;70753;47.908;11.274;2023-11-21T04:47:15;3.72;;;1.10;;
81273;SDS011;70753;47.908;11.274;2023-11-21T04:50:01;3.88;;;1.25;;
81273;SDS011;70753;47.908;11.274;2023-11-21T04:52:49;4.15;;;1.20;;
81273;SDS011;70753;47.908;11.274;2023-11-21T04:55:35;4.05;;;1.20;;
81273;SDS011;70753;47.908;11.274;2023-11-21T04:58:20;4.88;;;1.65;;
81273;SDS011;70753;47.908;11.274;2023-11-21T05:01:07;4.28;;;1.10;;
81273;SDS011;70753;47.908;11.274;2023-11-21T05:03:52;2.97;;;0.90;;
81273;SDS011;70753;47.908;11.274;2023-11-21T05:06:38;2.92;;;0.80;;
81273;SDS011;70753;47.908;11.274;2023-11-21T05:09:25;3.08;;;0.90;;
81273;SDS011;70753;47.908;11.274;2023-11-21T05:12:11;2.33;;;1.20;;
81273;SDS011;70753;47.908;11.274;2023-11-21T05:14:57;3.08;;;1.10;;
81273;SDS011;70753;47.908;11.274;2023-11-21T05:17:43;3.25;;;1.05;;
81273;SDS011;70753;47.908;11.274;2023-11-21T05:20:29;3.95;;;1.35;;
81273;SDS011;70753;47.908;11.274;2023-11-21T05:23:15;4.32;;;1.05;;
81273;SDS011;70753;47.908;11.274;2023-11-21T05:26:02;5.88;;;1.30;;
81273;SDS011;70753;47.908;11.274;2023-11-21T05:28:48;2.80;;;0.80;;
81273;SDS011;70753;47.908;11.274;2023-11-21T05:31:33;4.30;;;1.10;;
81273;SDS011;70753;47.908;11.274;2023-11-21T05:34:19;3.47;;;2.03;;
81273;SDS011;70753;47.908;11.274;2023-11-21T05:37:05;7.95;;;2.30;;
81273;SDS011;70753;47.908;11.274;2023-11-21T05:39:51;3.17;;;1.30;;
81273;SDS011;70753;47.908;11.274;2023-11-21T05:42:38;6.22;;;1.25;;
81273;SDS011;70753;47.908;11.274;2023-11-21T05:45:24;2.95;;;0.90;;
81273;SDS011;70753;47.908;11.274;2023-11-21T05:48:10;5.95;;;1.30;;
81273;SDS011;70753;47.908;11.274;2023-11-21T05:50:56;2.05;;;0.90;;
81273;SDS011;70753;47.908;11.274;2023-11-21T05:53:41;4.60;;;1.02;;
81273;SDS011;70753;47.908;11.274;2023-11-21T05:56:27;3.45;;;0.98;;
81273;SDS011;70753;47.908;11.274;2023-11-21T05:59:14;4.65;;;0.90;;
81273;SDS011;70753;47.908;11.274;2023-11-21T06:02:00;3.95;;;1.10;;
81273;SDS011;70753;47.908;11.274;2023-11-21T06:04:46;2.95;;;1.20;;
81273;SDS011;70753;47.908;11.274;2023-11-21T06:07:31;3.25;;;1.00;;
81273;SDS011;70753;47.908;11.274;2023-11-21T06:10:19;2.83;;;1.38;;
81273;SDS011;70753;47.908;11.274;2023-11-21T06:13:05;4.70;;;1.40;;
81273;SDS011;70753;47.908;11.274;2023-11-21T06:15:52;6.30;;;1.20;;
81273;SDS011;70753;47.908;11.274;2023-11-21T06:18:38;5.60;;;1.00;;
81273;SDS011;70753;47.908;11.274;2023-11-21T06:21:24;3.28;;;1.10;;
81273;SDS011;70753;47.908;11.274;2023-11-21T06:24:10;2.70;;;1.02;;
81273;SDS011;70753;47.908;11.274;2023-11-21T06:26:56;3.70;;;1.20;;
81273;SDS011;70753;47.908;11.274;2023-11-21T06:29:41;2.88;;;1.35;;
81273;SDS011;70753;47.908;11.274;2023-11-21T06:32:29;3.72;;;1.20;;
81273;SDS011;70753;47.908;11.274;2023-11-21T06:35:15;4.10;;;1.10;;
81273;SDS011;70753;47.908;11.274;2023-11-21T06:38:00;4.30;;;1.20;;
81273;SDS011;70753;47.908;11.274;2023-11-21T06:40:46;3.78;;;1.10;;
81273;SDS011;70753;47.908;11.274;2023-11-21T06:43:32;2.60;;;1.00;;
81273;SDS011;70753;47.908;11.274;2023-11-21T06:46:18;3.08;;;0.88;;
81273;SDS011;70753;47.908;11.274;2023-11-21T06:49:05;4.82;;;1.20;;
81273;SDS011;70753;47.908;11.274;2023-11-21T06:51:50;4.70;;;1.00;;
81273;SDS011;70753;47.908;11.274;2023-11-21T06:54:36;3.60;;;0.93;;
81273;SDS011;70753;47.908;11.274;2023-11-21T06:57:22;2.75;;;0.88;;
81273;SDS011;70753;47.908;11.274;2023-11-21T07:00:09;5.25;;;1.05;;
81273;SDS011;70753;47.908;11.274;2023-11-21T07:02:55;3.85;;;1.38;;
81273;SDS011;70753;47.908;11.274;2023-11-21T07:05:42;4.07;;;1.33;;
81273;SDS011;70753;47.908;11.274;2023-11-21T07:08:28;2.75;;;0.82;;
81273;SDS011;70753;47.908;11.274;2023-11-21T07:11:13;1.33;;;0.77;;
81273;SDS011;70753;47.908;11.274;2023-11-21T07:13:59;3.25;;;0.93;;
81273;SDS011;70753;47.908;11.274;2023-11-21T07:16:45;1.67;;;1.00;;
81273;SDS011;70753;47.908;11.274;2023-11-21T07:19:31;3.33;;;1.33;;
81273;SDS011;70753;47.908;11.274;2023-11-21T07:22:18;5.13;;;1.20;;
81273;SDS011;70753;47.908;11.274;2023-11-21T07:25:04;4.00;;;1.40;;
81273;SDS011;70753;47.908;11.274;2023-11-21T07:27:50;3.45;;;0.90;;
81273;SDS011;70753;47.908;11.274;2023-11-21T07:30:36;5.88;;;1.27;;
81273;SDS011;70753;47.908;11.274;2023-11-21T07:33:21;3.70;;;1.08;;
81273;SDS011;70753;47.908;11.274;2023-11-21T07:36:07;3.08;;;0.90;;
81273;SDS011;70753;47.908;11.274;2023-11-21T07:38:55;3.22;;;1.17;;
81273;SDS011;70753;47.908;11.274;2023-11-21T07:41:41;3.30;;;1.00;;
81273;SDS011;70753;47.908;11.274;2023-11-21T07:44:26;3.13;;;1.13;;
81273;SDS011;70753;47.908;11.274;2023-11-21T07:47:12;3.30;;;1.17;;
81273;SDS011;70753;47.908;11.274;2023-11-21T07:49:58;2.85;;;0.90;;
81273;SDS011;70753;47.908;11.274;2023-11-21T07:52:44;3.88;;;1.15;;
81273;SDS011;70753;47.908;11.274;2023-11-21T07:55:31;3.70;;;1.15;;
81273;SDS011;70753;47.908;11.274;2023-11-21T07:58:16;3.33;;;0.85;;
81273;SDS011;70753;47.908;11.274;2023-11-21T08:01:03;3.15;;;1.15;;
81273;SDS011;70753;47.908;11.274;2023-11-21T08:03:49;2.85;;;1.05;;
81273;SDS011;70753;47.908;11.274;2023-11-21T08:06:34;3.60;;;1.35;;
81273;SDS011;70753;47.908;11.274;2023-11-21T08:09:20;3.63;;;1.20;;
81273;SDS011;70753;47.908;11.274;2023-11-21T08:12:08;5.35;;;2.25;;
81273;SDS011;70753;47.908;11.274;2023-11-21T08:14:53;4.20;;;1.27;;
81273;SDS011;70753;47.908;11.274;2023-11-21T08:17:39;3.10;;;1.52;;
81273;SDS011;70753;47.908;11.274;2023-11-21T08:20:25;1.00;;;0.80;;
81273;SDS011;70753;47.908;11.274;2023-11-21T08:23:10;2.55;;;0.93;;
81273;SDS011;70753;47.908;11.274;2023-11-21T08:25:56;2.00;;;0.75;;
81273;SDS011;70753;47.908;11.274;2023-11-21T08:28:43;0.88;;;0.60;;
81273;SDS011;70753;47.908;11.274;2023-11-21T08:31:29;3.50;;;1.27;;
81273;SDS011;70753;47.908;11.274;2023-11-21T08:34:15;1.42;;;0.80;;
81273;SDS011;70753;47.908;11.274;2023-11-21T08:37:00;1.88;;;0.63;;
81273;SDS011;70753;47.908;11.274;2023-11-21T08:39:46;2.80;;;1.00;;
81273;SDS011;70753;47.908;11.274;2023-11-21T08:42:32;2.88;;;0.90;;
81273;SDS011;70753;47.908;11.274;2023-11-21T08:45:21;2.58;;;0.90;;
81273;SDS011;70753;47.908;11.274;2023-11-21T08:48:06;0.77;;;0.60;;
81273;SDS011;70753;47.908;11.274;2023-11-21T08:50:52;2.13;;;0.95;;
81273;SDS011;70753;47.908;11.274;2023-11-21T08:53:38;2.13;;;0.88;;
81273;SDS011;70753;47.908;11.274;2023-11-21T08:56:24;2.80;;;0.65;;
81273;SDS011;70753;47.908;11.274;2023-11-21T08:59:10;1.55;;;0.90;;
81273;SDS011;70753;47.908;11.274;2023-11-21T09:01:57;4.28;;;1.20;;
81273;SDS011;70753;47.908;11.274;2023-11-21T09:04:42;2.70;;;0.98;;
81273;SDS011;70753;47.908;11.274;2023-11-21T09:07:28;1.50;;;0.80;;
81273;SDS011;70753;47.908;11.274;2023-11-21T09:10:14;2.25;;;0.80;;
81273;SDS011;70753;47.908;11.274;2023-11-21T09:13:00;0.70;;;0.70;;
81273;SDS011;70753;47.908;11.274;2023-11-21T09:15:45;1.17;;;0.75;;
81273;SDS011;70753;47.908;11.274;2023-11-21T09:18:32;1.77;;;0.85;;
81273;SDS011;70753;47.908;11.274;2023-11-21T09:21:18;2.47;;;1.05;;
81273;SDS011;70753;47.908;11.274;2023-11-21T09:24:04;2.30;;;1.00;;
81273;SDS011;70753;47.908;11.274;2023-11-21T09:26:50;2.55;;;0.95;;
81273;SDS011;70753;47.908;11.274;2023-11-21T09:29:36;1.08;;;0.98;;
81273;SDS011;70753;47.908;11.274;2023-11-21T09:32:22;2.60;;;0.90;;
81273;SDS011;70753;47.908;11.274;2023-11-21T09:35:09;1.63;;;0.80;;
81273;SDS011;70753;47.908;11.274;2023-11-21T09:37:55;1.35;;;0.90;;
81273;SDS011;70753;47.908;11.274;2023-11-21T09:40:41;0.95;;;0.45;;
81273;SDS011;70753;47.908;11.274;2023-11-21T09:43:27;2.28;;;0.85;;
81273;SDS011;70753;47.908;11.274;2023-11-21T09:46:15;1.13;;;0.63;;
81273;SDS011;70753;47.908;11.274;2023-11-21T09:49:01;2.33;;;0.80;;
81273;SDS011;70753;47.908;11.274;2023-11-21T09:51:50;2.40;;;0.80;;
81273;SDS011;70753;47.908;11.274;2023-11-21T09:54:40;2.80;;;0.95;;
81273;SDS011;70753;47.908;11.274;2023-11-21T09:57:25;3.35;;;0.80;;
81273;SDS011;70753;47.908;11.274;2023-11-21T10:00:13;6.80;;;1.90;;
81273;SDS011;70753;47.908;11.274;2023-11-21T10:02:59;3.50;;;1.40;;
81273;SDS011;70753;47.908;11.274;2023-11-21T10:05:45;3.13;;;1.50;;
81273;SDS011;70753;47.908;11.274;2023-11-21T10:08:36;1.23;;;0.70;;
81273;SDS011;70753;47.908;11.274;2023-11-21T10:11:22;1.30;;;0.75;;
81273;SDS011;70753;47.908;11.274;2023-11-21T10:14:10;3.90;;;1.10;;
81273;SDS011;70753;47.908;11.274;2023-11-21T10:16:56;1.55;;;0.73;;
81273;SDS011;70753;47.908;11.274;2023-11-21T10:19:43;1.73;;;1.00;;
81273;SDS011;70753;47.908;11.274;2023-11-21T10:22:30;3.40;;;0.85;;
81273;SDS011;70753;47.908;11.274;2023-11-21T10:25:18;1.98;;;1.00;;
81273;SDS011;70753;47.908;11.274;2023-11-21T10:28:04;0.95;;;0.60;;
81273;SDS011;70753;47.908;11.274;2023-11-21T10:30:50;1.75;;;0.90;;
81273;SDS011;70753;47.908;11.274;2023-11-21T10:33:36;1.88;;;0.85;;
81273;SDS011;70753;47.908;11.274;2023-11-21T10:36:25;1.33;;;0.80;;
81273;SDS011;70753;47.908;11.274;2023-11-21T10:39:13;1.88;;;1.00;;
81273;SDS011;70753;47.908;11.274;2023-11-21T10:42:01;1.45;;;0.85;;
81273;SDS011;70753;47.908;11.274;2023-11-21T10:44:47;2.45;;;1.10;;
81273;SDS011;70753;47.908;11.274;2023-11-21T10:47:33;3.90;;;1.10;;
81273;SDS011;70753;47.908;11.274;2023-11-21T10:50:19;2.90;;;0.90;;
81273;SDS011;70753;47.908;11.274;2023-11-21T10:53:05;3.20;;;0.98;;
81273;SDS011;70753;47.908;11.274;2023-11-21T10:55:54;2.33;;;0.80;;
81273;SDS011;70753;47.908;11.274;2023-11-21T10:58:49;2.08;;;0.88;;
81273;SDS011;70753;47.908;11.274;2023-11-21T11:01:35;3.40;;;0.93;;
81273;SDS011;70753;47.908;11.274;2023-11-21T11:04:22;3.25;;;1.13;;
81273;SDS011;70753;47.908;11.274;2023-11-21T11:07:10;3.00;;;0.90;;
81273;SDS011;70753;47.908;11.274;2023-11-21T11:09:58;2.58;;;1.00;;
81273;SDS011;70753;47.908;11.274;2023-11-21T11:12:45;1.55;;;0.82;;
81273;SDS011;70753;47.908;11.274;2023-11-21T11:15:32;2.67;;;0.98;;
81273;SDS011;70753;47.908;11.274;2023-11-21T11:18:18;2.22;;;0.90;;
81273;SDS011;70753;47.908;11.274;2023-11-21T11:21:07;2.38;;;0.93;;
81273;SDS011;70753;47.908;11.274;2023-11-21T11:24:05;2.47;;;0.85;;
81273;SDS011;70753;47.908;11.274;2023-11-21T11:27:01;3.22;;;1.10;;
81273;SDS011;70753;47.908;11.274;2023-11-21T11:29:59;3.28;;;1.23;;
81273;SDS011;70753;47.908;11.274;2023-11-21T11:32:58;3.50;;;1.20;;
81273;SDS011;70753;47.908;11.274;2023-11-21T11:35:57;2.33;;;1.05;;
81273;SDS011;70753;47.908;11.274;2023-11-21T11:38:47;3.28;;;1.05;;
81273;SDS011;70753;47.908;11.274;2023-11-21T11:41:33;2.90;;;1.23;;
81273;SDS011;70753;47.908;11.274;2023-11-21T11:47:36;4.07;;;1.20;;
81273;SDS011;70753;47.908;11.274;2023-11-21T11:50:23;2.63;;;0.95;;
81273;SDS011;70753;47.908;11.274;2023-11-21T11:53:13;2.60;;;0.90;;
81273;SDS011;70753;47.908;11.274;2023-11-21T11:56:12;2.55;;;1.00;;
81273;SDS011;70753;47.908;11.274;2023-11-21T11:59:06;2.92;;;1.20;;
81273;SDS011;70753;47.908;11.274;2023-11-21T12:01:52;2.08;;;1.00;;
81273;SDS011;70753;47.908;11.274;2023-11-21T12:04:38;4.32;;;1.20;;
81273;SDS011;70753;47.908;11.274;2023-11-21T12:07:39;3.20;;;1.30;;
81273;SDS011;70753;47.908;11.274;2023-11-21T12:10:28;3.75;;;1.30;;
81273;SDS011;70753;47.908;11.274;2023-11-21T12:13:14;2.67;;;0.90;;
81273;SDS011;70753;47.908;11.274;2023-11-21T12:16:01;3.47;;;1.10;;
81273;SDS011;70753;47.908;11.274;2023-11-21T12:18:47;2.72;;;1.00;;
81273;SDS011;70753;47.908;11.274;2023-11-21T12:21:32;2.90;;;1.30;;
81273;SDS011;70753;47.908;11.274;2023-11-21T12:24:20;2.75;;;0.98;;
81273;SDS011;70753;47.908;11.274;2023-11-21T12:27:06;3.15;;;1.20;;
81273;SDS011;70753;47.908;11.274;2023-11-21T12:29:52;2.88;;;1.10;;
81273;SDS011;70753;47.908;11.274;2023-11-21T12:32:38;4.00;;;1.13;;
81273;SDS011;70753;47.908;11.274;2023-11-21T12:35:25;3.80;;;0.90;;
81273;SDS011;70753;47.908;11.274;2023-11-21T12:38:12;2.55;;;0.80;;
81273;SDS011;70753;47.908;11.274;2023-11-21T12:40:59;2.40;;;0.93;;
81273;SDS011;70753;47.908;11.274;2023-11-21T12:43:45;3.00;;;1.15;;
81273;SDS011;70753;47.908;11.274;2023-11-21T12:46:31;2.58;;;1.00;;
81273;SDS011;70753;47.908;11.274;2023-11-21T12:49:17;3.53;;;1.33;;
81273;SDS011;70753;47.908;11.274;2023-11-21T12:52:04;2.20;;;0.95;;
81273;SDS011;70753;47.908;11.274;2023-11-21T12:54:51;2.40;;;1.00;;
81273;SDS011;70753;47.908;11.274;2023-11-21T12:57:38;2.58;;;1.30;;
81273;SDS011;70753;47.908;11.274;2023-11-21T13:00:28;3.08;;;1.23;;
81273;SDS011;70753;47.908;11.274;2023-11-21T13:03:16;2.72;;;1.33;;
81273;SDS011;70753;47.908;11.274;2023-11-21T13:06:02;3.83;;;1.73;;
81273;SDS011;70753;47.908;11.274;2023-11-21T13:08:49;1.65;;;0.80;;
81273;SDS011;70753;47.908;11.274;2023-11-21T13:11:35;2.35;;;0.93;;
81273;SDS011;70753;47.908;11.274;2023-11-21T13:14:29;3.60;;;0.93;;
81273;SDS011;70753;47.908;11.274;2023-11-21T13:17:15;1.80;;;0.80;;
81273;SDS011;70753;47.908;11.274;2023-11-21T13:20:01;1.85;;;0.70;;
81273;SDS011;70753;47.908;11.274;2023-11-21T13:22:47;0.73;;;0.50;;
81273;SDS011;70753;47.908;11.274;2023-11-21T13:25:33;1.63;;;0.70;;
81273;SDS011;70753;47.908;11.274;2023-11-21T13:28:19;1.65;;;0.77;;
81273;SDS011;70753;47.908;11.274;2023-11-21T13:31:06;4.28;;;1.80;;
81273;SDS011;70753;47.908;11.274;2023-11-21T13:33:52;4.32;;;1.00;;
81273;SDS011;70753;47.908;11.274;2023-11-21T13:36:38;1.52;;;0.80;;
81273;SDS011;70753;47.908;11.274;2023-11-21T13:39:24;1.02;;;0.50;;
81273;SDS011;70753;47.908;11.274;2023-11-21T13:42:09;4.40;;;1.20;;
81273;SDS011;70753;47.908;11.274;2023-11-21T13:44:56;1.70;;;0.90;;
81273;SDS011;70753;47.908;11.274;2023-11-21T13:47:43;2.85;;;1.00;;
81273;SDS011;70753;47.908;11.274;2023-11-21T13:50:29;1.90;;;0.82;;
81273;SDS011;70753;47.908;11.274;2023-11-21T13:53:14;3.22;;;0.90;;
81273;SDS011;70753;47.908;11.274;2023-11-21T13:56:00;2.40;;;1.00;;
81273;SDS011;70753;47.908;11.274;2023-11-21T13:58:46;3.03;;;1.00;;
81273;SDS011;70753;47.908;11.274;2023-11-21T14:01:31;2.58;;;1.10;;
81273;SDS011;70753;47.908;11.274;2023-11-21T14:04:19;3.83;;;1.83;;
81273;SDS011;70753;47.908;11.274;2023-11-21T14:07:04;6.07;;;2.83;;
81273;SDS011;70753;47.908;11.274;2023-11-21T14:09:50;5.15;;;2.28;;
81273;SDS011;70753;47.908;11.274;2023-11-21T14:12:36;2.65;;;1.30;;
81273;SDS011;70753;47.908;11.274;2023-11-21T14:15:22;2.00;;;1.00;;
81273;SDS011;70753;47.908;11.274;2023-11-21T14:18:07;2.40;;;1.42;;
81273;SDS011;70753;47.908;11.274;2023-11-21T14:20:54;3.30;;;1.00;;
81273;SDS011;70753;47.908;11.274;2023-11-21T14:23:40;3.55;;;1.65;;
81273;SDS011;70753;47.908;11.274;2023-11-21T14:26:26;3.50;;;1.40;;
81273;SDS011;70753;47.908;11.274;2023-11-21T14:29:12;4.00;;;1.60;;
81273;SDS011;70753;47.908;11.274;2023-11-21T14:31:57;3.00;;;1.30;;
81273;SDS011;70753;47.908;11.274;2023-11-21T14:34:43;3.45;;;1.60;;
81273;SDS011;70753;47.908;11.274;2023-11-21T14:37:30;3.15;;;1.42;;
81273;SDS011;70753;47.908;11.274;2023-11-21T14:40:16;4.47;;;1.90;;
81273;SDS011;70753;47.908;11.274;2023-11-21T14:43:02;2.78;;;1.30;;
81273;SDS011;70753;47.908;11.274;2023-11-21T14:45:48;4.05;;;2.00;;
81273;SDS011;70753;47.908;11.274;2023-11-21T14:48:34;3.33;;;1.67;;
81273;SDS011;70753;47.908;11.274;2023-11-21T14:51:19;4.38;;;2.05;;
81273;SDS011;70753;47.908;11.274;2023-11-21T14:54:06;4.88;;;2.17;;
81273;SDS011;70753;47.908;11.274;2023-11-21T14:56:52;5.15;;;2.38;;
81273;SDS011;70753;47.908;11.274;2023-11-21T14:59:43;6.05;;;3.22;;
81273;SDS011;70753;47.908;11.274;2023-11-21T15:02:29;5.57;;;3.10;;
81273;SDS011;70753;47.908;11.274;2023-11-21T15:05:15;2.70;;;1.15;;
81273;SDS011;70753;47.908;11.274;2023-11-21T15:08:00;3.53;;;1.40;;
81273;SDS011;70753;47.908;11.274;2023-11-21T15:10:47;2.17;;;1.20;;
81273;SDS011;70753;47.908;11.274;2023-11-21T15:13:33;4.82;;;2.03;;
81273;SDS011;70753;47.908;11.274;2023-11-21T15:16:19;4.65;;;1.92;;
81273;SDS011;70753;47.908;11.274;2023-11-21T15:19:05;3.97;;;1.60;;
81273;SDS011;70753;47.908;11.274;2023-11-21T15:21:50;4.68;;;1.75;;
81273;SDS011;70753;47.908;11.274;2023-11-21T15:24:36;4.15;;;2.80;;
81273;SDS011;70753;47.908;11.274;2023-11-21T15:27:23;3.65;;;1.70;;
81273;SDS011;70753;47.908;11.274;2023-11-21T15:30:09;3.42;;;1.30;;
81273;SDS011;70753;47.908;11.274;2023-11-21T15:32:55;3.20;;;1.40;;
81273;SDS011;70753;47.908;11.274;2023-11-21T15:35:41;3.17;;;1.67;;
81273;SDS011;70753;47.908;11.274;2023-11-21T15:38:26;2.88;;;1.60;;
81273;SDS011;70753;47.908;11.274;2023-11-21T15:41:12;3.60;;;1.30;;
81273;SDS011;70753;47.908;11.274;2023-11-21T15:43:59;3.97;;;1.75;;
81273;SDS011;70753;47.908;11.274;2023-11-21T15:46:45;3.03;;;1.55;;
81273;SDS011;70753;47.908;11.274;2023-11-21T15:49:31;4.18;;;1.67;;
81273;SDS011;70753;47.908;11.274;2023-11-21T15:52:16;3.42;;;1.50;;
81273;SDS011;70753;47.908;11.274;2023-11-21T15:55:02;4.22;;;1.73;;
81273;SDS011;70753;47.908;11.274;2023-11-21T15:57:49;3.53;;;1.50;;
81273;SDS011;70753;47.908;11.274;2023-11-21T16:00:36;2.85;;;1.40;;
81273;SDS011;70753;47.908;11.274;2023-11-21T16:03:21;2.85;;;1.38;;
81273;SDS011;70753;47.908;11.274;2023-11-21T16:06:07;3.45;;;1.70;;
81273;SDS011;70753;47.908;11.274;2023-11-21T16:08:53;5.63;;;2.55;;
81273;SDS011;70753;47.908;11.274;2023-11-21T16:11:38;4.30;;;2.38;;
81273;SDS011;70753;47.908;11.274;2023-11-21T16:14:24;3.78;;;1.70;;
81273;SDS011;70753;47.908;11.274;2023-11-21T16:17:11;4.68;;;2.10;;
81273;SDS011;70753;47.908;11.274;2023-11-21T16:19:57;10.73;;;5.65;;
81273;SDS011;70753;47.908;11.274;2023-11-21T16:22:43;8.73;;;3.88;;
81273;SDS011;70753;47.908;11.274;2023-11-21T16:25:29;18.98;;;6.55;;
81273;SDS011;70753;47.908;11.274;2023-11-21T16:28:15;7.05;;;3.40;;
81273;SDS011;70753;47.908;11.274;2023-11-21T16:31:01;12.38;;;5.22;;